sensor_id;sensor_type;location;lat;lon;timestamp;temperature;humidity
27072;DHT22;14613;46.308;25.288;2023-01-05T00:01:13;7.60;90.40
27072;DHT22;14613;46.308;25.288;2023-01-05T00:03:39;7.60;90.40
27072;DHT22;14613;46.308;25.288;2023-01-05T00:06:10;7.50;90.50
27072;DHT22;14613;46.308;25.288;2023-01-05T00:08:37;7.50;90.50
27072;DHT22;14613;46.308;25.288;2023-01-05T00:11:06;7.50;90.50
27072;DHT22;14613;46.308;25.288;2023-01-05T00:13:51;7.50;90.50
27072;DHT22;14613;46.308;25.288;2023-01-05T00:16:35;7.40;90.50
27072;DHT22;14613;46.308;25.288;2023-01-05T00:19:19;7.40;90.60
27072;DHT22;14613;46.308;25.288;2023-01-05T00:22:20;7.40;90.50
27072;DHT22;14613;46.308;25.288;2023-01-05T00:24:59;7.40;90.50
27072;DHT22;14613;46.308;25.288;2023-01-05T00:27:26;7.40;90.50
27072;DHT22;14613;46.308;25.288;2023-01-05T00:29:52;7.40;90.50
27072;DHT22;14613;46.308;25.288;2023-01-05T00:32:18;7.40;90.40
27072;DHT22;14613;46.308;25.288;2023-01-05T00:34:44;7.40;90.40
27072;DHT22;14613;46.308;25.288;2023-01-05T00:37:09;7.30;90.30
27072;DHT22;14613;46.308;25.288;2023-01-05T00:39:35;7.30;90.30
27072;DHT22;14613;46.308;25.288;2023-01-05T00:42:01;7.30;90.30
27072;DHT22;14613;46.308;25.288;2023-01-05T00:44:27;7.30;90.30
27072;DHT22;14613;46.308;25.288;2023-01-05T00:46:52;7.30;90.30
27072;DHT22;14613;46.308;25.288;2023-01-05T00:49:19;7.30;90.30
27072;DHT22;14613;46.308;25.288;2023-01-05T00:51:45;7.20;90.20
27072;DHT22;14613;46.308;25.288;2023-01-05T00:54:10;7.20;90.30
27072;DHT22;14613;46.308;25.288;2023-01-05T00:56:36;7.20;90.30
27072;DHT22;14613;46.308;25.288;2023-01-05T00:59:02;7.20;90.20
27072;DHT22;14613;46.308;25.288;2023-01-05T01:01:28;7.20;90.20
27072;DHT22;14613;46.308;25.288;2023-01-05T01:03:54;7.20;90.20
27072;DHT22;14613;46.308;25.288;2023-01-05T01:06:20;7.20;90.30
27072;DHT22;14613;46.308;25.288;2023-01-05T01:08:47;7.10;90.30
27072;DHT22;14613;46.308;25.288;2023-01-05T01:11:12;7.10;90.20
27072;DHT22;14613;46.308;25.288;2023-01-05T01:13:41;7.10;90.20
27072;DHT22;14613;46.308;25.288;2023-01-05T01:16:12;7.10;90.20
27072;DHT22;14613;46.308;25.288;2023-01-05T01:18:39;7.10;90.20
27072;DHT22;14613;46.308;25.288;2023-01-05T01:21:05;7.10;90.20
27072;DHT22;14613;46.308;25.288;2023-01-05T01:23:31;7.00;90.20
27072;DHT22;14613;46.308;25.288;2023-01-05T01:26:05;7.00;90.30
27072;DHT22;14613;46.308;25.288;2023-01-05T01:28:32;6.90;90.30
27072;DHT22;14613;46.308;25.288;2023-01-05T01:30:57;6.90;90.20
27072;DHT22;14613;46.308;25.288;2023-01-05T01:33:23;6.90;90.30
27072;DHT22;14613;46.308;25.288;2023-01-05T01:35:49;6.90;90.30
27072;DHT22;14613;46.308;25.288;2023-01-05T01:38:15;6.90;90.20
27072;DHT22;14613;46.308;25.288;2023-01-05T01:40:43;6.90;90.10
27072;DHT22;14613;46.308;25.288;2023-01-05T01:43:39;6.90;90.10
27072;DHT22;14613;46.308;25.288;2023-01-05T01:46:03;6.80;90.00
27072;DHT22;14613;46.308;25.288;2023-01-05T01:48:30;6.80;90.10
27072;DHT22;14613;46.308;25.288;2023-01-05T01:50:57;6.70;90.00
27072;DHT22;14613;46.308;25.288;2023-01-05T01:53:27;6.70;90.00
27072;DHT22;14613;46.308;25.288;2023-01-05T01:55:56;6.60;90.00
27072;DHT22;14613;46.308;25.288;2023-01-05T01:58:25;6.60;90.00
27072;DHT22;14613;46.308;25.288;2023-01-05T02:00:52;6.50;90.00
27072;DHT22;14613;46.308;25.288;2023-01-05T02:03:17;6.40;90.10
27072;DHT22;14613;46.308;25.288;2023-01-05T02:05:43;6.40;90.10
27072;DHT22;14613;46.308;25.288;2023-01-05T02:08:11;6.40;90.20
27072;DHT22;14613;46.308;25.288;2023-01-05T02:11:01;6.30;90.20
27072;DHT22;14613;46.308;25.288;2023-01-05T02:32:33;6.00;90.10
27072;DHT22;14613;46.308;25.288;2023-01-05T02:35:32;6.00;90.10
27072;DHT22;14613;46.308;25.288;2023-01-05T02:40:48;5.90;90.10
27072;DHT22;14613;46.308;25.288;2023-01-05T02:43:17;5.80;90.20
27072;DHT22;14613;46.308;25.288;2023-01-05T02:45:47;5.80;90.30
27072;DHT22;14613;46.308;25.288;2023-01-05T02:48:13;5.70;90.30
27072;DHT22;14613;46.308;25.288;2023-01-05T02:51:00;5.70;90.30
27072;DHT22;14613;46.308;25.288;2023-01-05T02:56:12;5.80;90.30
27072;DHT22;14613;46.308;25.288;2023-01-05T02:58:57;5.80;90.30
27072;DHT22;14613;46.308;25.288;2023-01-05T03:01:41;5.70;90.30
27072;DHT22;14613;46.308;25.288;2023-01-05T03:04:12;5.70;90.40
27072;DHT22;14613;46.308;25.288;2023-01-05T03:06:46;5.70;90.40
27072;DHT22;14613;46.308;25.288;2023-01-05T03:09:16;5.70;90.40
27072;DHT22;14613;46.308;25.288;2023-01-05T03:15:02;5.70;90.40
27072;DHT22;14613;46.308;25.288;2023-01-05T03:17:42;5.70;90.40
27072;DHT22;14613;46.308;25.288;2023-01-05T03:20:12;5.70;90.40
27072;DHT22;14613;46.308;25.288;2023-01-05T03:22:40;5.70;90.40
27072;DHT22;14613;46.308;25.288;2023-01-05T03:25:26;5.70;90.30
27072;DHT22;14613;46.308;25.288;2023-01-05T03:28:20;5.60;90.30
27072;DHT22;14613;46.308;25.288;2023-01-05T03:31:32;5.60;90.30
27072;DHT22;14613;46.308;25.288;2023-01-05T03:35:15;5.60;90.30
27072;DHT22;14613;46.308;25.288;2023-01-05T03:37:37;5.60;90.30
27072;DHT22;14613;46.308;25.288;2023-01-05T03:40:09;5.60;90.40
27072;DHT22;14613;46.308;25.288;2023-01-05T03:42:37;5.60;90.40
27072;DHT22;14613;46.308;25.288;2023-01-05T03:45:05;5.50;90.30
27072;DHT22;14613;46.308;25.288;2023-01-05T03:47:31;5.50;90.30
27072;DHT22;14613;46.308;25.288;2023-01-05T03:49:57;5.50;90.30
27072;DHT22;14613;46.308;25.288;2023-01-05T03:52:23;5.50;90.30
27072;DHT22;14613;46.308;25.288;2023-01-05T03:54:48;5.50;90.30
27072;DHT22;14613;46.308;25.288;2023-01-05T03:57:14;5.50;90.40
27072;DHT22;14613;46.308;25.288;2023-01-05T03:59:40;5.50;90.40
27072;DHT22;14613;46.308;25.288;2023-01-05T04:02:06;5.50;90.50
27072;DHT22;14613;46.308;25.288;2023-01-05T04:04:31;5.50;90.50
27072;DHT22;14613;46.308;25.288;2023-01-05T04:06:57;5.50;90.50
27072;DHT22;14613;46.308;25.288;2023-01-05T04:09:23;5.50;90.50
27072;DHT22;14613;46.308;25.288;2023-01-05T04:11:49;5.50;90.80
27072;DHT22;14613;46.308;25.288;2023-01-05T04:14:14;5.40;90.50
27072;DHT22;14613;46.308;25.288;2023-01-05T04:16:42;5.50;90.60
27072;DHT22;14613;46.308;25.288;2023-01-05T04:19:09;5.50;90.60
27072;DHT22;14613;46.308;25.288;2023-01-05T04:21:35;5.40;90.70
27072;DHT22;14613;46.308;25.288;2023-01-05T04:24:01;5.40;90.70
27072;DHT22;14613;46.308;25.288;2023-01-05T04:26:26;5.40;90.80
27072;DHT22;14613;46.308;25.288;2023-01-05T04:28:52;5.50;90.80
27072;DHT22;14613;46.308;25.288;2023-01-05T04:31:18;5.50;90.80
27072;DHT22;14613;46.308;25.288;2023-01-05T04:33:44;5.50;90.80
27072;DHT22;14613;46.308;25.288;2023-01-05T04:36:10;5.60;90.70
27072;DHT22;14613;46.308;25.288;2023-01-05T04:38:35;5.60;90.70
27072;DHT22;14613;46.308;25.288;2023-01-05T04:41:01;5.60;90.70
27072;DHT22;14613;46.308;25.288;2023-01-05T04:43:27;5.60;90.60
27072;DHT22;14613;46.308;25.288;2023-01-05T04:45:53;5.70;90.60
27072;DHT22;14613;46.308;25.288;2023-01-05T04:48:19;5.70;90.60
27072;DHT22;14613;46.308;25.288;2023-01-05T04:50:51;5.70;90.60
27072;DHT22;14613;46.308;25.288;2023-01-05T04:53:17;5.70;90.60
27072;DHT22;14613;46.308;25.288;2023-01-05T04:55:44;5.70;90.60
27072;DHT22;14613;46.308;25.288;2023-01-05T04:58:10;5.70;90.60
27072;DHT22;14613;46.308;25.288;2023-01-05T05:00:36;5.70;90.60
27072;DHT22;14613;46.308;25.288;2023-01-05T05:03:02;5.70;90.60
27072;DHT22;14613;46.308;25.288;2023-01-05T05:05:28;5.70;90.60
27072;DHT22;14613;46.308;25.288;2023-01-05T05:07:54;5.70;90.60
27072;DHT22;14613;46.308;25.288;2023-01-05T05:10:19;5.70;90.60
27072;DHT22;14613;46.308;25.288;2023-01-05T05:12:45;5.80;90.60
27072;DHT22;14613;46.308;25.288;2023-01-05T05:15:11;5.80;90.60
27072;DHT22;14613;46.308;25.288;2023-01-05T05:17:37;5.70;90.60
27072;DHT22;14613;46.308;25.288;2023-01-05T05:20:03;5.80;90.60
27072;DHT22;14613;46.308;25.288;2023-01-05T05:22:30;5.70;90.70
27072;DHT22;14613;46.308;25.288;2023-01-05T05:24:56;5.80;90.70
27072;DHT22;14613;46.308;25.288;2023-01-05T05:27:22;5.70;90.70
27072;DHT22;14613;46.308;25.288;2023-01-05T05:29:47;5.70;90.80
27072;DHT22;14613;46.308;25.288;2023-01-05T05:32:13;5.70;91.20
27072;DHT22;14613;46.308;25.288;2023-01-05T05:34:39;5.60;90.80
27072;DHT22;14613;46.308;25.288;2023-01-05T05:37:05;5.60;90.80
27072;DHT22;14613;46.308;25.288;2023-01-05T05:39:31;5.70;90.80
27072;DHT22;14613;46.308;25.288;2023-01-05T05:41:57;5.70;90.80
27072;DHT22;14613;46.308;25.288;2023-01-05T05:44:22;5.70;90.70
27072;DHT22;14613;46.308;25.288;2023-01-05T05:46:48;5.70;90.70
27072;DHT22;14613;46.308;25.288;2023-01-05T05:49:14;5.70;90.70
27072;DHT22;14613;46.308;25.288;2023-01-05T05:51:40;5.70;90.70
27072;DHT22;14613;46.308;25.288;2023-01-05T05:54:05;5.70;90.70
27072;DHT22;14613;46.308;25.288;2023-01-05T05:56:31;5.70;90.70
27072;DHT22;14613;46.308;25.288;2023-01-05T05:58:57;5.70;90.70
27072;DHT22;14613;46.308;25.288;2023-01-05T06:01:23;5.60;90.60
27072;DHT22;14613;46.308;25.288;2023-01-05T06:03:49;5.60;90.60
27072;DHT22;14613;46.308;25.288;2023-01-05T06:06:14;5.60;90.60
27072;DHT22;14613;46.308;25.288;2023-01-05T06:08:40;5.70;90.60
27072;DHT22;14613;46.308;25.288;2023-01-05T06:11:06;5.60;90.50
27072;DHT22;14613;46.308;25.288;2023-01-05T06:13:32;5.60;90.50
27072;DHT22;14613;46.308;25.288;2023-01-05T06:15:58;5.60;90.60
27072;DHT22;14613;46.308;25.288;2023-01-05T06:18:24;5.60;90.60
27072;DHT22;14613;46.308;25.288;2023-01-05T06:20:50;5.60;90.60
27072;DHT22;14613;46.308;25.288;2023-01-05T06:23:15;5.60;90.70
27072;DHT22;14613;46.308;25.288;2023-01-05T06:25:42;5.60;90.70
27072;DHT22;14613;46.308;25.288;2023-01-05T06:28:07;5.60;90.80
27072;DHT22;14613;46.308;25.288;2023-01-05T06:30:33;5.60;90.80
27072;DHT22;14613;46.308;25.288;2023-01-05T06:32:59;5.60;90.90
27072;DHT22;14613;46.308;25.288;2023-01-05T06:35:25;5.60;90.90
27072;DHT22;14613;46.308;25.288;2023-01-05T06:37:50;5.70;90.90
27072;DHT22;14613;46.308;25.288;2023-01-05T06:40:16;5.70;90.80
27072;DHT22;14613;46.308;25.288;2023-01-05T06:42:42;5.70;90.80
27072;DHT22;14613;46.308;25.288;2023-01-05T06:45:12;5.70;90.80
27072;DHT22;14613;46.308;25.288;2023-01-05T06:47:38;5.80;90.90
27072;DHT22;14613;46.308;25.288;2023-01-05T06:50:05;5.80;90.90
27072;DHT22;14613;46.308;25.288;2023-01-05T06:52:31;5.80;90.80
27072;DHT22;14613;46.308;25.288;2023-01-05T06:55:02;5.90;90.80
27072;DHT22;14613;46.308;25.288;2023-01-05T06:57:28;5.90;90.80
27072;DHT22;14613;46.308;25.288;2023-01-05T06:59:54;5.90;90.80
27072;DHT22;14613;46.308;25.288;2023-01-05T07:02:20;5.90;90.80
27072;DHT22;14613;46.308;25.288;2023-01-05T07:04:45;5.90;90.80
27072;DHT22;14613;46.308;25.288;2023-01-05T07:07:15;6.00;90.80
27072;DHT22;14613;46.308;25.288;2023-01-05T07:09:41;6.00;90.80
27072;DHT22;14613;46.308;25.288;2023-01-05T07:12:07;6.10;90.80
27072;DHT22;14613;46.308;25.288;2023-01-05T07:14:33;6.10;90.80
27072;DHT22;14613;46.308;25.288;2023-01-05T07:16:59;6.10;90.80
27072;DHT22;14613;46.308;25.288;2023-01-05T07:19:25;6.20;90.80
27072;DHT22;14613;46.308;25.288;2023-01-05T07:21:51;6.20;90.80
27072;DHT22;14613;46.308;25.288;2023-01-05T07:24:16;6.20;90.80
27072;DHT22;14613;46.308;25.288;2023-01-05T07:26:42;6.30;90.80
27072;DHT22;14613;46.308;25.288;2023-01-05T07:29:08;6.30;90.80
27072;DHT22;14613;46.308;25.288;2023-01-05T07:31:34;6.30;90.80
27072;DHT22;14613;46.308;25.288;2023-01-05T07:34:00;6.40;90.80
27072;DHT22;14613;46.308;25.288;2023-01-05T07:36:25;6.40;90.80
27072;DHT22;14613;46.308;25.288;2023-01-05T07:38:52;6.50;90.90
27072;DHT22;14613;46.308;25.288;2023-01-05T07:41:17;6.50;90.90
27072;DHT22;14613;46.308;25.288;2023-01-05T07:43:46;6.60;90.90
27072;DHT22;14613;46.308;25.288;2023-01-05T07:46:13;6.60;90.90
27072;DHT22;14613;46.308;25.288;2023-01-05T07:48:40;6.70;90.90
27072;DHT22;14613;46.308;25.288;2023-01-05T07:51:06;6.70;90.90
27072;DHT22;14613;46.308;25.288;2023-01-05T07:53:33;6.70;90.80
27072;DHT22;14613;46.308;25.288;2023-01-05T07:56:02;6.80;90.80
27072;DHT22;14613;46.308;25.288;2023-01-05T07:58:28;6.80;90.70
27072;DHT22;14613;46.308;25.288;2023-01-05T08:00:55;6.80;90.70
27072;DHT22;14613;46.308;25.288;2023-01-05T08:03:21;6.90;90.80
27072;DHT22;14613;46.308;25.288;2023-01-05T08:05:47;6.90;90.80
27072;DHT22;14613;46.308;25.288;2023-01-05T08:08:13;6.90;90.80
27072;DHT22;14613;46.308;25.288;2023-01-05T08:10:42;6.90;90.80
27072;DHT22;14613;46.308;25.288;2023-01-05T08:13:09;7.00;90.80
27072;DHT22;14613;46.308;25.288;2023-01-05T08:15:55;7.00;90.90
27072;DHT22;14613;46.308;25.288;2023-01-05T08:18:22;7.10;90.90
27072;DHT22;14613;46.308;25.288;2023-01-05T08:20:59;7.10;90.90
27072;DHT22;14613;46.308;25.288;2023-01-05T08:23:26;7.10;90.90
27072;DHT22;14613;46.308;25.288;2023-01-05T08:25:53;7.20;90.90
27072;DHT22;14613;46.308;25.288;2023-01-05T08:28:19;7.30;90.90
27072;DHT22;14613;46.308;25.288;2023-01-05T08:30:45;7.30;90.90
27072;DHT22;14613;46.308;25.288;2023-01-05T08:33:11;7.40;90.80
27072;DHT22;14613;46.308;25.288;2023-01-05T08:35:41;7.40;90.80
27072;DHT22;14613;46.308;25.288;2023-01-05T08:38:08;7.40;90.80
27072;DHT22;14613;46.308;25.288;2023-01-05T08:40:36;7.50;90.80
27072;DHT22;14613;46.308;25.288;2023-01-05T08:43:05;7.60;90.70
27072;DHT22;14613;46.308;25.288;2023-01-05T08:45:31;7.60;90.70
27072;DHT22;14613;46.308;25.288;2023-01-05T08:47:57;7.70;90.70
27072;DHT22;14613;46.308;25.288;2023-01-05T08:50:23;7.80;90.60
27072;DHT22;14613;46.308;25.288;2023-01-05T08:52:49;7.90;90.60
27072;DHT22;14613;46.308;25.288;2023-01-05T08:55:15;7.90;90.50
27072;DHT22;14613;46.308;25.288;2023-01-05T08:57:41;7.90;90.50
27072;DHT22;14613;46.308;25.288;2023-01-05T09:00:07;8.00;90.40
27072;DHT22;14613;46.308;25.288;2023-01-05T09:02:33;8.00;90.40
27072;DHT22;14613;46.308;25.288;2023-01-05T09:04:59;8.00;90.40
27072;DHT22;14613;46.308;25.288;2023-01-05T09:07:25;8.10;90.50
27072;DHT22;14613;46.308;25.288;2023-01-05T09:09:53;8.20;90.50
27072;DHT22;14613;46.308;25.288;2023-01-05T09:12:18;8.30;90.50
27072;DHT22;14613;46.308;25.288;2023-01-05T09:14:44;8.30;90.50
27072;DHT22;14613;46.308;25.288;2023-01-05T09:17:10;8.40;90.50
27072;DHT22;14613;46.308;25.288;2023-01-05T09:19:36;8.50;90.50
27072;DHT22;14613;46.308;25.288;2023-01-05T09:22:02;8.60;90.50
27072;DHT22;14613;46.308;25.288;2023-01-05T09:24:28;8.60;90.30
27072;DHT22;14613;46.308;25.288;2023-01-05T09:26:54;8.60;90.30
27072;DHT22;14613;46.308;25.288;2023-01-05T09:29:20;8.70;90.30
27072;DHT22;14613;46.308;25.288;2023-01-05T09:31:46;8.70;90.20
27072;DHT22;14613;46.308;25.288;2023-01-05T09:34:11;8.70;90.10
27072;DHT22;14613;46.308;25.288;2023-01-05T09:36:37;8.80;90.00
27072;DHT22;14613;46.308;25.288;2023-01-05T09:39:04;8.70;89.90
27072;DHT22;14613;46.308;25.288;2023-01-05T09:41:43;8.70;90.00
27072;DHT22;14613;46.308;25.288;2023-01-05T09:44:35;8.70;90.00
27072;DHT22;14613;46.308;25.288;2023-01-05T09:47:37;8.70;90.10
27072;DHT22;14613;46.308;25.288;2023-01-05T09:50:06;8.70;90.30
27072;DHT22;14613;46.308;25.288;2023-01-05T09:52:33;8.80;90.30
27072;DHT22;14613;46.308;25.288;2023-01-05T09:55:01;8.90;90.40
27072;DHT22;14613;46.308;25.288;2023-01-05T09:57:28;8.90;90.30
27072;DHT22;14613;46.308;25.288;2023-01-05T10:00:05;9.00;90.20
27072;DHT22;14613;46.308;25.288;2023-01-05T10:02:46;9.00;90.10
27072;DHT22;14613;46.308;25.288;2023-01-05T10:05:13;9.00;90.50
27072;DHT22;14613;46.308;25.288;2023-01-05T10:10:31;9.00;90.00
27072;DHT22;14613;46.308;25.288;2023-01-05T10:13:02;9.00;90.00
27072;DHT22;14613;46.308;25.288;2023-01-05T10:15:44;9.10;90.10
27072;DHT22;14613;46.308;25.288;2023-01-05T10:18:16;9.00;90.10
27072;DHT22;14613;46.308;25.288;2023-01-05T10:21:16;9.10;90.10
27072;DHT22;14613;46.308;25.288;2023-01-05T10:24:37;9.10;90.00
27072;DHT22;14613;46.308;25.288;2023-01-05T10:26:48;9.10;90.10
27072;DHT22;14613;46.308;25.288;2023-01-05T10:29:31;9.10;90.20
27072;DHT22;14613;46.308;25.288;2023-01-05T10:32:16;9.20;90.10
27072;DHT22;14613;46.308;25.288;2023-01-05T10:34:59;9.20;90.30
27072;DHT22;14613;46.308;25.288;2023-01-05T10:37:50;9.20;90.30
27072;DHT22;14613;46.308;25.288;2023-01-05T10:40:24;9.20;90.50
27072;DHT22;14613;46.308;25.288;2023-01-05T10:45:43;9.40;90.70
27072;DHT22;14613;46.308;25.288;2023-01-05T10:48:16;9.50;90.70
27072;DHT22;14613;46.308;25.288;2023-01-05T10:50:44;9.60;90.60
27072;DHT22;14613;46.308;25.288;2023-01-05T10:53:16;9.70;90.50
27072;DHT22;14613;46.308;25.288;2023-01-05T10:58:34;9.90;90.30
27072;DHT22;14613;46.308;25.288;2023-01-05T11:01:23;10.00;90.30
27072;DHT22;14613;46.308;25.288;2023-01-05T11:04:06;10.10;90.20
27072;DHT22;14613;46.308;25.288;2023-01-05T11:06:34;10.20;90.10
27072;DHT22;14613;46.308;25.288;2023-01-05T11:09:21;10.30;90.00
27072;DHT22;14613;46.308;25.288;2023-01-05T11:11:59;10.40;89.60
27072;DHT22;14613;46.308;25.288;2023-01-05T11:14:27;10.40;89.40
27072;DHT22;14613;46.308;25.288;2023-01-05T11:17:00;10.50;89.30
27072;DHT22;14613;46.308;25.288;2023-01-05T11:19:30;10.50;89.00
27072;DHT22;14613;46.308;25.288;2023-01-05T11:21:57;10.60;88.80
27072;DHT22;14613;46.308;25.288;2023-01-05T11:26:53;10.60;88.50
27072;DHT22;14613;46.308;25.288;2023-01-05T11:29:19;10.60;88.40
27072;DHT22;14613;46.308;25.288;2023-01-05T11:31:49;10.60;88.40
27072;DHT22;14613;46.308;25.288;2023-01-05T11:34:44;10.70;88.50
27072;DHT22;14613;46.308;25.288;2023-01-05T11:42:26;10.80;88.40
27072;DHT22;14613;46.308;25.288;2023-01-05T11:47:54;10.90;88.10
27072;DHT22;14613;46.308;25.288;2023-01-05T11:51:04;11.00;88.10
27072;DHT22;14613;46.308;25.288;2023-01-05T11:53:40;11.00;88.20
27072;DHT22;14613;46.308;25.288;2023-01-05T11:56:23;11.00;87.90
27072;DHT22;14613;46.308;25.288;2023-01-05T11:58:53;11.00;87.70
27072;DHT22;14613;46.308;25.288;2023-01-05T12:01:45;11.10;87.70
27072;DHT22;14613;46.308;25.288;2023-01-05T12:07:12;11.10;87.40
27072;DHT22;14613;46.308;25.288;2023-01-05T12:09:52;11.10;87.20
27072;DHT22;14613;46.308;25.288;2023-01-05T12:21:20;11.10;86.70
27072;DHT22;14613;46.308;25.288;2023-01-05T12:27:08;11.10;86.60
27072;DHT22;14613;46.308;25.288;2023-01-05T12:29:59;11.10;86.60
27072;DHT22;14613;46.308;25.288;2023-01-05T12:41:05;11.00;86.40
27072;DHT22;14613;46.308;25.288;2023-01-05T12:49:20;10.90;86.80
27072;DHT22;14613;46.308;25.288;2023-01-05T12:51:54;11.00;86.80
27072;DHT22;14613;46.308;25.288;2023-01-05T12:54:42;11.00;86.70
27072;DHT22;14613;46.308;25.288;2023-01-05T12:57:16;11.00;86.70
27072;DHT22;14613;46.308;25.288;2023-01-05T13:00:08;11.10;86.80
27072;DHT22;14613;46.308;25.288;2023-01-05T13:05:34;11.20;86.40
27072;DHT22;14613;46.308;25.288;2023-01-05T13:10:59;11.30;86.10
27072;DHT22;14613;46.308;25.288;2023-01-05T13:13:34;11.30;86.10
27072;DHT22;14613;46.308;25.288;2023-01-05T13:16:07;11.30;86.10
27072;DHT22;14613;46.308;25.288;2023-01-05T13:18:42;11.40;86.10
27072;DHT22;14613;46.308;25.288;2023-01-05T13:21:10;11.40;86.00
27072;DHT22;14613;46.308;25.288;2023-01-05T13:26:15;11.40;86.10
27072;DHT22;14613;46.308;25.288;2023-01-05T13:28:42;11.40;86.00
27072;DHT22;14613;46.308;25.288;2023-01-05T13:31:40;11.40;85.90
27072;DHT22;14613;46.308;25.288;2023-01-05T13:37:15;11.50;85.80
27072;DHT22;14613;46.308;25.288;2023-01-05T13:43:06;11.60;85.50
27072;DHT22;14613;46.308;25.288;2023-01-05T13:46:09;11.50;85.50
27072;DHT22;14613;46.308;25.288;2023-01-05T13:51:46;11.40;85.70
27072;DHT22;14613;46.308;25.288;2023-01-05T13:54:32;11.40;85.80
27072;DHT22;14613;46.308;25.288;2023-01-05T13:57:06;11.40;85.90
27072;DHT22;14613;46.308;25.288;2023-01-05T13:59:34;11.30;85.80
27072;DHT22;14613;46.308;25.288;2023-01-05T14:02:02;11.20;85.80
27072;DHT22;14613;46.308;25.288;2023-01-05T14:04:31;11.20;85.80
27072;DHT22;14613;46.308;25.288;2023-01-05T14:07:00;11.20;85.90
27072;DHT22;14613;46.308;25.288;2023-01-05T14:09:35;11.10;86.00
27072;DHT22;14613;46.308;25.288;2023-01-05T14:14:57;11.00;86.40
27072;DHT22;14613;46.308;25.288;2023-01-05T14:20:48;10.90;86.50
27072;DHT22;14613;46.308;25.288;2023-01-05T14:26:06;10.80;86.70
27072;DHT22;14613;46.308;25.288;2023-01-05T14:36:30;10.80;86.60
27072;DHT22;14613;46.308;25.288;2023-01-05T14:38:59;10.80;87.60
27072;DHT22;14613;46.308;25.288;2023-01-05T14:41:27;10.80;86.80
27072;DHT22;14613;46.308;25.288;2023-01-05T14:46:26;10.80;86.70
27072;DHT22;14613;46.308;25.288;2023-01-05T14:49:03;10.80;86.70
27072;DHT22;14613;46.308;25.288;2023-01-05T14:51:33;10.80;86.60
27072;DHT22;14613;46.308;25.288;2023-01-05T14:54:04;10.70;86.70
27072;DHT22;14613;46.308;25.288;2023-01-05T14:56:35;10.70;86.80
27072;DHT22;14613;46.308;25.288;2023-01-05T14:59:22;10.60;87.10
27072;DHT22;14613;46.308;25.288;2023-01-05T15:01:58;10.40;87.50
27072;DHT22;14613;46.308;25.288;2023-01-05T15:04:28;10.40;88.00
27072;DHT22;14613;46.308;25.288;2023-01-05T15:07:21;10.30;88.30
27072;DHT22;14613;46.308;25.288;2023-01-05T15:16:01;10.20;88.60
27072;DHT22;14613;46.308;25.288;2023-01-05T15:21:47;10.20;88.50
27072;DHT22;14613;46.308;25.288;2023-01-05T15:27:29;10.20;88.60
27072;DHT22;14613;46.308;25.288;2023-01-05T15:30:19;10.20;88.60
27072;DHT22;14613;46.308;25.288;2023-01-05T15:32:50;10.30;88.70
27072;DHT22;14613;46.308;25.288;2023-01-05T15:35:27;10.30;88.60
27072;DHT22;14613;46.308;25.288;2023-01-05T15:37:53;10.30;88.50
27072;DHT22;14613;46.308;25.288;2023-01-05T15:42:57;10.30;88.40
27072;DHT22;14613;46.308;25.288;2023-01-05T15:45:32;10.30;88.30
27072;DHT22;14613;46.308;25.288;2023-01-05T15:48:06;10.30;88.30
27072;DHT22;14613;46.308;25.288;2023-01-05T15:50:48;10.30;88.40
27072;DHT22;14613;46.308;25.288;2023-01-05T15:53:41;10.20;88.40
27072;DHT22;14613;46.308;25.288;2023-01-05T15:58:53;10.10;88.90
27072;DHT22;14613;46.308;25.288;2023-01-05T16:01:19;10.10;89.00
27072;DHT22;14613;46.308;25.288;2023-01-05T16:03:46;10.00;88.90
27072;DHT22;14613;46.308;25.288;2023-01-05T16:06:27;10.00;89.00
27072;DHT22;14613;46.308;25.288;2023-01-05T16:08:55;9.90;89.60
27072;DHT22;14613;46.308;25.288;2023-01-05T16:11:27;9.90;90.00
27072;DHT22;14613;46.308;25.288;2023-01-05T16:17:04;9.80;90.00
27072;DHT22;14613;46.308;25.288;2023-01-05T16:19:53;9.90;90.00
27072;DHT22;14613;46.308;25.288;2023-01-05T16:22:47;9.90;90.00
27072;DHT22;14613;46.308;25.288;2023-01-05T16:25:28;9.90;90.00
27072;DHT22;14613;46.308;25.288;2023-01-05T16:28:00;9.90;90.00
27072;DHT22;14613;46.308;25.288;2023-01-05T16:35:41;10.00;90.00
27072;DHT22;14613;46.308;25.288;2023-01-05T16:40:35;10.00;90.00
27072;DHT22;14613;46.308;25.288;2023-01-05T16:45:40;10.00;90.00
27072;DHT22;14613;46.308;25.288;2023-01-05T16:50:54;10.10;90.00
27072;DHT22;14613;46.308;25.288;2023-01-05T16:53:21;10.10;90.00
27072;DHT22;14613;46.308;25.288;2023-01-05T16:55:47;10.10;90.00
27072;DHT22;14613;46.308;25.288;2023-01-05T16:58:32;10.10;90.00
27072;DHT22;14613;46.308;25.288;2023-01-05T17:03:40;10.10;90.10
27072;DHT22;14613;46.308;25.288;2023-01-05T17:06:21;10.10;90.10
27072;DHT22;14613;46.308;25.288;2023-01-05T17:08:48;10.00;90.10
27072;DHT22;14613;46.308;25.288;2023-01-05T17:11:14;10.10;90.10
27072;DHT22;14613;46.308;25.288;2023-01-05T17:13:51;10.00;90.10
27072;DHT22;14613;46.308;25.288;2023-01-05T17:16:19;10.10;90.20
27072;DHT22;14613;46.308;25.288;2023-01-05T17:18:45;10.00;90.10
27072;DHT22;14613;46.308;25.288;2023-01-05T17:21:21;10.00;90.20
27072;DHT22;14613;46.308;25.288;2023-01-05T17:23:53;10.00;90.20
27072;DHT22;14613;46.308;25.288;2023-01-05T17:26:33;10.10;90.20
27072;DHT22;14613;46.308;25.288;2023-01-05T17:29:01;10.00;90.20
27072;DHT22;14613;46.308;25.288;2023-01-05T17:31:27;10.10;90.20
27072;DHT22;14613;46.308;25.288;2023-01-05T17:33:53;10.00;90.20
27072;DHT22;14613;46.308;25.288;2023-01-05T17:36:21;10.00;90.30
27072;DHT22;14613;46.308;25.288;2023-01-05T17:38:49;10.00;90.40
27072;DHT22;14613;46.308;25.288;2023-01-05T17:41:15;9.90;90.40
27072;DHT22;14613;46.308;25.288;2023-01-05T17:43:41;9.90;90.50
27072;DHT22;14613;46.308;25.288;2023-01-05T17:46:08;9.90;90.90
27072;DHT22;14613;46.308;25.288;2023-01-05T17:48:38;9.90;90.50
27072;DHT22;14613;46.308;25.288;2023-01-05T17:51:04;9.90;90.50
27072;DHT22;14613;46.308;25.288;2023-01-05T17:53:30;9.90;90.50
27072;DHT22;14613;46.308;25.288;2023-01-05T17:55:56;9.90;90.50
27072;DHT22;14613;46.308;25.288;2023-01-05T17:58:21;9.90;90.50
27072;DHT22;14613;46.308;25.288;2023-01-05T18:00:47;9.80;90.60
27072;DHT22;14613;46.308;25.288;2023-01-05T18:03:15;9.80;90.70
27072;DHT22;14613;46.308;25.288;2023-01-05T18:05:44;9.70;90.80
27072;DHT22;14613;46.308;25.288;2023-01-05T18:08:11;9.70;90.90
27072;DHT22;14613;46.308;25.288;2023-01-05T18:10:37;9.70;90.90
27072;DHT22;14613;46.308;25.288;2023-01-05T18:13:04;9.60;91.00
27072;DHT22;14613;46.308;25.288;2023-01-05T18:15:30;9.70;91.00
27072;DHT22;14613;46.308;25.288;2023-01-05T18:17:57;9.60;91.00
27072;DHT22;14613;46.308;25.288;2023-01-05T18:20:23;9.60;91.10